Startpagina
METAR-TAF:

METAR-TAF

Vliegvelden :

Albert, Frankrijk

breedte: 49-58-21N, lengte: 002-41-29E, hoogte: 111 m

Actueel weer

Dit bericht is 12 minuten geleden gemaakt, om 11:00 UTC
Wind 13 kt uit het oostzuidoosten
Temperatuur 24°C
Vochtigheid 44%
Druk 1018 hPa
Zicht: 7000 m

METAR: LFAQ 261100Z AUTO 11013KT 7000 NSC 24/11 Q1018 NOSIG

Tijdstip: 13:12 (11:12 UTC)

Verwachting

Dit bericht is 3 uur en het 12 minuten geleden gemaakt, om 08:00 UTC
Verwachting geldig van 26 om 09 UTC tot 26 om 18 UTC
Wind 10 kt uit het oosten
Zicht 10 km of meer
geen wolken onder 1500 m en geen cumulonimbus

TAF: LFAQ 260800Z 2609/2618 10010KT CAVOK

Waarnemingen en weersverwachtingen van meer dan 4000 vliegvelden (METAR en TAF).

De beschikbare stations zijn de gele en rode punten op de kaart.

Ga met uw muis naar het station om de naam te zien.

Klik dan om waarnemingen en weersverwachtingen te zien.

kaart wijzigen: klik op de groene knoppen met een zwart kruis om in te zoomen, op de groene knop met een streepje om uit te zoomen of op de groene pijlen voor aangrenzende kaarten.


METAR-TAF: